M I D A S
Marine Information and Data Acquisition System
Tripno 1499 of the Zeeleeuw from 2008-06-09 06:34:31 to 2008-06-09 14:33:54
Back to CruiseResearch ActivitiesStationsMapUnderway DataData graphs

EquipmentUnitsComment
TimeDGPSUTC
LatitudeDGPSDM.mWGS84
LongitudeDGPSDM.mWGS84
HeadingGyrodeg 
SOGDGPSknotsSpeed over ground
COGDGPSdegCourse over ground
DepthEcho soundermeters200 kHz
Missing or incorrect values are displayed as -999
Navigation data collected by the RV Zeeleeuw from 2008-06-09 06:34:32 to 2008-06-09 14:45:23
Time Latitude Longitude Heading SOG COG Depth
2008-06-09 06:35:37 51°13.636 2°56.011 118.8 2.2 300 -999
2008-06-09 06:36:37 51°13.657 2°55.949 119.7 3 298 -999
2008-06-09 06:37:37 51°13.683 2°55.879 126.6 3.1 306 -999
2008-06-09 06:38:37 51°13.711 2°55.819 123 1.1 309 9.3
2008-06-09 06:39:37 51°13.723 2°55.779 103 2.9 285 -999
2008-06-09 06:40:37 51°13.726 2°55.751 74.8 0.6 246 -999
2008-06-09 06:41:37 51°13.721 2°55.738 41.8 0.2 213 14.1
2008-06-09 06:42:37 51°13.704 2°55.727 24.1 0.8 195 14.1
2008-06-09 06:43:37 51°13.704 2°55.728 5 0.5 1 14.6
2008-06-09 06:44:37 51°13.714 2°55.725 342.9 0.6 345 13.9
2008-06-09 06:45:37 51°13.723 2°55.718 333.5 0.6 328 12.4
2008-06-09 06:46:37 51°13.73 2°55.709 331.4 0.5 318 11.9
2008-06-09 06:47:37 51°13.742 2°55.697 338 1.3 332 12
2008-06-09 06:48:37 51°13.798 2°55.661 340.3 6.8 339 11.8
2008-06-09 06:49:37 51°13.893 2°55.605 341.8 5.4 340 11.9
2008-06-09 06:50:37 51°13.97 2°55.55 334.8 5 333 11.8
2008-06-09 06:51:37 51°14.062 2°55.469 333.6 7.6 332 12.1
2008-06-09 06:52:37 51°14.185 2°55.363 330 9 328 -999
2008-06-09 06:53:37 51°14.307 2°55.175 309.9 10.9 307 11.5
2008-06-09 06:54:37 51°14.426 2°54.932 310.2 12.3 309 12
2008-06-09 06:55:37 51°14.539 2°54.665 296.9 12 297 11.8
2008-06-09 06:56:37 51°14.623 2°54.378 294.4 12 295 11.7
2008-06-09 06:57:37 51°14.713 2°54.094 295.6 12 297 11.7
2008-06-09 06:58:37 51°14.805 2°53.812 295.6 12.1 296 11.1
2008-06-09 06:59:37 51°14.894 2°53.526 296.8 12.1 297 11.2
2008-06-09 07:00:37 51°14.986 2°53.239 296.8 12.2 298 11.3
2008-06-09 07:01:37 51°15.06 2°52.941 288.2 12 288 11.5
2008-06-09 07:02:37 51°15.077 2°52.625 266.9 12 266 11.8
2008-06-09 07:03:37 51°15.056 2°52.308 264 12 266 11.8
2008-06-09 07:04:37 51°15.042 2°51.989 266 12 267 12.1
2008-06-09 07:05:37 51°15.033 2°51.669 267.4 12.1 269 12.5
2008-06-09 07:06:37 51°15.025 2°51.348 265.5 12.1 264 12.9
2008-06-09 07:07:37 51°15.004 2°51.029 263.1 12.1 264 13.1
2008-06-09 07:08:37 51°14.983 2°50.708 263.2 12.1 264 13.4
2008-06-09 07:09:37 51°14.967 2°50.386 267 12.2 268 13.3
2008-06-09 07:10:37 51°14.957 2°50.064 265.6 12.2 266 13.6
2008-06-09 07:11:37 51°14.94 2°49.74 262.8 12.2 264 13.8
2008-06-09 07:12:37 51°14.915 2°49.419 260.1 12.2 261 13.9
2008-06-09 07:13:37 51°14.884 2°49.098 261.5 12.2 262 13.5
2008-06-09 07:14:37 51°14.863 2°48.774 265.2 12.3 265 13.5
2008-06-09 07:15:37 51°14.84 2°48.451 261.5 12.2 262 13.3
2008-06-09 07:16:37 51°14.813 2°48.127 261.9 12.3 262 13.1
2008-06-09 07:17:37 51°14.796 2°47.8 265.5 12.4 264 14.6
2008-06-09 07:18:37 51°14.769 2°47.475 261.6 12.4 263 13.8
2008-06-09 07:19:37 51°14.746 2°47.149 262.2 12.3 263 13.9
2008-06-09 07:20:37 51°14.722 2°46.823 262.4 12.4 264 13.5
2008-06-09 07:21:37 51°14.699 2°46.497 262.6 12.4 264 12
2008-06-09 07:22:37 51°14.678 2°46.172 262.5 12.3 264 10.3
2008-06-09 07:23:37 51°14.662 2°45.847 265.1 12.3 268 9.5
2008-06-09 07:24:37 51°14.652 2°45.519 265.1 12.4 266 10.7
2008-06-09 07:25:37 51°14.636 2°45.189 263.9 12.5 265 12.1
2008-06-09 07:26:37 51°14.584 2°44.874 243.3 12.4 243 13.2
2008-06-09 07:27:37 51°14.472 2°44.598 233.6 12.4 236 13.4
2008-06-09 07:28:37 51°14.36 2°44.319 237.7 12.5 240 13.6
2008-06-09 07:29:37 51°14.253 2°44.034 236.4 12.5 238 13.9
2008-06-09 07:30:37 51°14.136 2°43.759 233.6 12.6 236 14
2008-06-09 07:31:37 51°14.017 2°43.486 233.9 12.6 235 14.1
2008-06-09 07:32:37 51°13.897 2°43.213 233.6 12.5 235 14.1
2008-06-09 07:33:37 51°13.771 2°42.949 230.1 12.6 232 13.9
2008-06-09 07:34:37 51°13.65 2°42.677 234.5 12.6 236 13.8
2008-06-09 07:35:37 51°13.529 2°42.405 231.8 12.6 231 13.6
2008-06-09 07:36:37 51°13.399 2°42.143 232 12.6 234 13.3
2008-06-09 07:37:37 51°13.274 2°41.875 232.9 12.6 233 13.5
2008-06-09 07:38:37 51°13.151 2°41.605 233 12.6 234 13.4
2008-06-09 07:39:37 51°13.028 2°41.335 232.9 12.6 234 13.3
2008-06-09 07:40:37 51°12.906 2°41.063 233.8 12.6 235 13.1
2008-06-09 07:41:37 51°12.784 2°40.791 234.3 12.6 235 12.5
2008-06-09 07:42:37 51°12.665 2°40.516 234.5 12.6 236 12.4
2008-06-09 07:43:37 51°12.554 2°40.232 237.2 12.6 237 12
2008-06-09 07:44:37 51°12.43 2°39.964 228.8 12.5 231 12.3
2008-06-09 07:45:37 51°12.297 2°39.713 228.9 12.3 231 11.9
2008-06-09 07:46:37 51°12.172 2°39.455 230.7 12.3 232 11.7
2008-06-09 07:47:37 51°12.053 2°39.186 233.2 12.4 233 11.8
2008-06-09 07:48:37 51°11.927 2°38.925 228.9 12.3 231 11.7
2008-06-09 07:49:37 51°11.795 2°38.674 228.6 12.3 230 11.1
2008-06-09 07:50:37 51°11.664 2°38.424 229.4 12.3 231 10.9
2008-06-09 07:51:37 51°11.535 2°38.172 229.8 12.2 231 10.9
2008-06-09 07:52:37 51°11.406 2°37.92 229.9 12.4 230 11.9
2008-06-09 07:53:37 51°11.277 2°37.665 229.6 12.4 231 12
2008-06-09 07:54:37 51°11.149 2°37.406 230.7 12.5 232 11.8
2008-06-09 07:55:37 51°11.023 2°37.145 232.5 12.5 234 11.9
2008-06-09 07:56:37 51°10.901 2°36.877 232.7 12.4 233 11.5
2008-06-09 07:57:37 51°10.772 2°36.619 228.2 12.4 228 10.9
2008-06-09 07:58:37 51°10.629 2°36.383 224.9 12.4 226 10.8
2008-06-09 07:59:37 51°10.482 2°36.152 220.7 12.4 222 10.5
2008-06-09 08:00:37 51°10.326 2°35.934 219.9 12.5 221 10.7
2008-06-09 08:01:37 51°10.163 2°35.733 216.4 12.4 216 11.4
2008-06-09 08:02:37 51°9.983 2°35.567 206.7 12.6 207 15.8
2008-06-09 08:03:37 51°9.804 2°35.397 211.4 12.6 213 18.3
2008-06-09 08:04:37 51°9.63 2°35.21 210.4 12.7 210 18.8
2008-06-09 08:05:37 51°9.446 2°35.047 205.7 12.7 211 17.9
2008-06-09 08:06:37 51°9.263 2°34.877 204.8 12.8 207 16.4
2008-06-09 08:07:37 51°9.072 2°34.731 202.7 12.8 206 16.4
2008-06-09 08:08:37 51°8.878 2°34.583 203.6 12.9 206 16.8
2008-06-09 08:09:37 51°8.695 2°34.44 204.4 11 207 16.7
2008-06-09 08:10:37 51°8.536 2°34.308 204.9 10.7 208 16.5
2008-06-09 08:11:37 51°8.425 2°34.234 192.1 5.3 198 14.9
2008-06-09 08:12:37 51°8.359 2°34.187 203 3.7 210 12.8
2008-06-09 08:13:37 51°8.315 2°34.128 225.7 3.7 228 11.7
2008-06-09 08:14:37 51°8.278 2°34.046 239.6 3.7 239 11.4
2008-06-09 08:15:37 51°8.251 2°33.963 244.2 3.4 242 11.6
2008-06-09 08:16:37 51°8.225 2°33.89 237.5 3.1 238 11.6
2008-06-09 08:17:37 51°8.199 2°33.824 238.2 2.8 239 11.5
2008-06-09 08:18:37 51°8.175 2°33.76 240.1 2.7 239 11.4
2008-06-09 08:19:37 51°8.152 2°33.698 240.5 2.7 239 11.4
2008-06-09 08:20:37 51°8.13 2°33.638 238.7 2.6 237 11.3
2008-06-09 08:21:37 51°8.107 2°33.579 239.4 2.6 239 11.3
2008-06-09 08:22:37 51°8.084 2°33.521 239.8 2.6 239 11.3
2008-06-09 08:23:37 51°8.062 2°33.463 239.3 2.5 238 11
2008-06-09 08:24:37 51°8.039 2°33.408 232.9 2.4 235 11.2
2008-06-09 08:25:37 51°8.015 2°33.356 230.2 2.5 234 10.8
2008-06-09 08:26:37 51°7.986 2°33.298 230.8 2.9 232 10.9
2008-06-09 08:27:37 51°7.957 2°33.235 232.9 3 234 10.7
2008-06-09 08:28:37 51°7.928 2°33.17 233.6 3 235 10.9
2008-06-09 08:29:37 51°7.899 2°33.106 233.9 3 234 10.3
2008-06-09 08:30:37 51°7.871 2°33.041 234.8 3 235 10.4
2008-06-09 08:31:37 51°7.843 2°32.976 235.1 3 235 10.5
2008-06-09 08:32:37 51°7.815 2°32.91 238 3 238 10.3
2008-06-09 08:33:37 51°7.789 2°32.842 239.6 3 238 10.4
2008-06-09 08:34:37 51°7.763 2°32.775 240 3 238 10.1
2008-06-09 08:35:37 51°7.737 2°32.708 240.1 3 238 10.1
2008-06-09 08:36:37 51°7.711 2°32.639 239.5 3 238 10.2
2008-06-09 08:37:37 51°7.683 2°32.571 240.1 3 238 9.9
2008-06-09 08:38:37 51°7.658 2°32.505 239.4 3 238 9.8
2008-06-09 08:39:37 51°7.63 2°32.438 239.1 3.1 238 10
2008-06-09 08:40:37 51°7.604 2°32.371 239.2 3 236 9.9
2008-06-09 08:41:37 51°7.576 2°32.305 239 3.1 236 9.7
2008-06-09 08:42:37 51°7.55 2°32.238 239.3 3.1 237 9.6
2008-06-09 08:43:37 51°7.523 2°32.171 239.3 3 237 9.5
2008-06-09 08:44:37 51°7.497 2°32.102 242 3 240 9.8
2008-06-09 08:45:37 51°7.472 2°32.035 240.9 2.9 239 10.1
2008-06-09 08:46:37 51°7.448 2°31.966 249.6 2.9 245 9.6
2008-06-09 08:47:37 51°7.431 2°31.893 261.9 2.8 251 10.3
2008-06-09 08:48:37 51°7.418 2°31.83 267.1 2.2 250 10.5
2008-06-09 08:49:37 51°7.406 2°31.779 268.9 1.9 248 10.6
2008-06-09 08:50:37 51°7.394 2°31.736 267.9 1.7 243 10.1
2008-06-09 08:51:37 51°7.382 2°31.698 268.5 1.6 243 10.4
2008-06-09 08:52:37 51°7.369 2°31.663 268.8 1.5 242 10.5
2008-06-09 08:53:37 51°7.357 2°31.628 266.9 1.7 246 10
2008-06-09 08:54:37 51°7.371 2°31.55 324.7 3.6 316 10.5
2008-06-09 08:55:37 51°7.428 2°31.555 39.7 5.6 36 11
2008-06-09 08:56:37 51°7.55 2°31.69 36.4 10.6 35 11.2
2008-06-09 08:57:37 51°7.698 2°31.859 37.9 11 35 13.1
2008-06-09 08:58:37 51°7.845 2°32.032 41.3 11.1 39 15.8
2008-06-09 08:59:37 51°7.982 2°32.227 43.7 11 43 15
2008-06-09 09:00:37 51°8.116 2°32.427 46.3 11.2 45 16.9
2008-06-09 09:01:37 51°8.244 2°32.641 47.1 11.2 46 17.5
2008-06-09 09:02:37 51°8.39 2°32.822 37 11.1 35 16.3
2008-06-09 09:03:37 51°8.544 2°32.984 36 11.1 33 16.2
2008-06-09 09:04:37 51°8.7 2°33.145 35.7 11.2 33 17.5
2008-06-09 09:05:37 51°8.856 2°33.311 38.4 11.2 36 17.1
2008-06-09 09:06:37 51°9.007 2°33.485 38.2 11.2 34 17.2
2008-06-09 09:07:37 51°9.164 2°33.645 36.2 11.2 33 17
2008-06-09 09:08:37 51°9.321 2°33.807 36.3 11.2 33 16
2008-06-09 09:09:37 51°9.478 2°33.97 37 11.4 33 15
2008-06-09 09:10:37 51°9.632 2°34.139 39.8 11.3 37 12.6
2008-06-09 09:11:37 51°9.789 2°34.304 36.2 11.3 33 10.2
2008-06-09 09:12:37 51°9.947 2°34.469 36.4 11.4 33 9.8
2008-06-09 09:13:37 51°10.106 2°34.634 36.2 11.4 33 10
2008-06-09 09:14:37 51°10.262 2°34.8 37 11.2 34 9.4
2008-06-09 09:15:37 51°10.417 2°34.965 36.4 11.2 33 8.4
2008-06-09 09:16:37 51°10.572 2°35.129 37.2 11.2 33 8.2
2008-06-09 09:17:37 51°10.729 2°35.292 36.7 11.2 33 8.5
2008-06-09 09:18:37 51°10.885 2°35.456 37.4 11.3 34 8.4
2008-06-09 09:19:37 51°11.042 2°35.619 36.9 11.2 34 8.7
2008-06-09 09:20:37 51°11.199 2°35.78 37.3 11.2 33 8.5
2008-06-09 09:21:37 51°11.357 2°35.94 37 11.2 33 8.5
2008-06-09 09:22:37 51°11.514 2°36.102 37.7 11.2 33 8.2
2008-06-09 09:23:37 51°11.671 2°36.263 37 11.2 33 8.4
2008-06-09 09:24:37 51°11.829 2°36.421 37.2 11.2 33 8.2
2008-06-09 09:25:37 51°11.986 2°36.58 37.6 11.2 32 8.4
2008-06-09 09:26:37 51°12.144 2°36.738 37.6 11.2 30 8.4
2008-06-09 09:27:37 51°12.31 2°36.876 30.2 11.2 25 8.9
2008-06-09 09:28:37 51°12.489 2°36.977 22.4 11.5 15 9
2008-06-09 09:29:37 51°12.678 2°37.029 13.6 11.5 6 8.5
2008-06-09 09:30:37 51°12.869 2°37.065 13.8 11.5 6 -999
2008-06-09 09:31:37 51°13.059 2°37.101 14 11.6 6 7.7
2008-06-09 09:32:37 51°13.253 2°37.131 12.6 11.9 358 7.6
2008-06-09 09:33:37 51°13.443 2°37.022 337.9 12.6 331 5.4
2008-06-09 09:34:37 51°13.575 2°36.76 293.2 13.1 284 16.8
2008-06-09 09:35:37 51°13.529 2°36.425 243.3 13.4 244 16.8
2008-06-09 09:36:37 51°13.406 2°36.126 229.3 13.5 232 15.8
2008-06-09 09:37:37 51°13.266 2°35.848 227.9 13.4 231 15.2
2008-06-09 09:38:37 51°13.126 2°35.571 228.2 13.3 231 14.2
2008-06-09 09:39:37 51°12.986 2°35.3 227.7 13.1 229 11.3
2008-06-09 09:40:37 51°12.841 2°35.043 225.1 13.1 228 10.7
2008-06-09 09:41:37 51°12.698 2°34.779 226.7 13.2 230 12.5
2008-06-09 09:42:37 51°12.556 2°34.514 227.1 13.2 230 13.6
2008-06-09 09:43:37 51°12.417 2°34.239 228.2 13.3 231 14.5
2008-06-09 09:44:37 51°12.272 2°33.971 223.5 13.3 225 16
2008-06-09 09:45:37 51°12.113 2°33.726 220.9 13.3 225 17.2
2008-06-09 09:46:37 51°11.961 2°33.468 225.1 13.4 228 17.6
2008-06-09 09:47:37 51°11.804 2°33.216 221.5 13.3 225 17.1
2008-06-09 09:48:37 51°11.652 2°32.962 223.7 13.3 226 17.7
2008-06-09 09:49:37 51°11.495 2°32.718 221.9 13.2 225 15.5
2008-06-09 09:50:37 51°11.355 2°32.48 223.8 10.8 225 14.1
2008-06-09 09:51:37 51°11.261 2°32.335 208.2 5 213 13.6
2008-06-09 09:52:37 51°11.2 2°32.269 212.9 4.2 223 13.9
2008-06-09 09:53:37 51°11.159 2°32.184 236.5 4 240 13.8
2008-06-09 09:54:37 51°11.133 2°32.091 253.6 3.8 251 15
2008-06-09 09:55:37 51°11.116 2°31.999 258 3.5 253 15.7
2008-06-09 09:56:37 51°11.095 2°31.918 243.5 3.2 243 16.3
2008-06-09 09:57:37 51°11.068 2°31.848 230 3.1 235 16.4
2008-06-09 09:58:37 51°11.037 2°31.782 228.9 3.1 234 16.8
2008-06-09 09:59:37 51°11.009 2°31.713 235.1 3.1 238 16.6
2008-06-09 10:00:37 51°10.981 2°31.643 235.3 3.1 237 16.7
2008-06-09 10:01:37 51°10.953 2°31.575 230 3 234 17.1
2008-06-09 10:02:37 51°10.922 2°31.507 227.5 3.2 233 17.1
2008-06-09 10:03:37 51°10.89 2°31.44 225.8 3.2 232 17.2
2008-06-09 10:04:37 51°10.856 2°31.373 225.6 3.2 232 17.6
2008-06-09 10:05:37 51°10.822 2°31.305 226.5 3.3 232 17.6
2008-06-09 10:06:37 51°10.788 2°31.236 225.6 3.3 232 17.8
2008-06-09 10:07:37 51°10.754 2°31.169 225.5 3.2 231 17.9
2008-06-09 10:08:37 51°10.72 2°31.102 225.1 3.2 231 18.2
2008-06-09 10:09:37 51°10.686 2°31.037 225.1 3.2 230 18.1
2008-06-09 10:10:37 51°10.653 2°30.971 223.4 3.1 229 18.5
2008-06-09 10:11:37 51°10.618 2°30.909 221.3 3.1 228 18.9
2008-06-09 10:12:37 51°10.583 2°30.848 217.6 3.1 227 18.9
2008-06-09 10:13:37 51°10.548 2°30.788 219.8 3.1 228 19
2008-06-09 10:14:37 51°10.512 2°30.727 220.2 3.1 228 19.3
2008-06-09 10:15:37 51°10.476 2°30.665 219.2 3.2 226 19.4
2008-06-09 10:16:37 51°10.44 2°30.603 218.7 3.2 224 19.6
2008-06-09 10:17:37 51°10.402 2°30.544 218.1 3.2 227 19.5
2008-06-09 10:18:37 51°10.365 2°30.483 217.9 3.2 225 19.9
2008-06-09 10:19:37 51°10.327 2°30.423 217.1 3.2 225 19.8
2008-06-09 10:20:37 51°10.289 2°30.363 217.6 3.2 225 19.8
2008-06-09 10:21:37 51°10.251 2°30.304 217.8 3.2 225 19.7
2008-06-09 10:22:37 51°10.212 2°30.243 218 3.3 225 19.7
2008-06-09 10:23:37 51°10.173 2°30.183 217.5 3.3 223 19.7
2008-06-09 10:24:37 51°10.134 2°30.123 217.2 3.3 224 19.8
2008-06-09 10:25:37 51°10.094 2°30.064 216.7 3.3 223 20.2
2008-06-09 10:26:37 51°10.054 2°30.004 216.9 3.3 224 20.5
2008-06-09 10:27:37 51°10.013 2°29.943 222 3.3 226 20.5
2008-06-09 10:28:37 51°9.979 2°29.876 233.6 3.2 233 20.7
2008-06-09 10:29:37 51°9.95 2°29.806 247.5 3.1 239 20.8
2008-06-09 10:30:37 51°9.927 2°29.734 261.2 3 246 20.7
2008-06-09 10:31:37 51°9.909 2°29.661 272.8 2.8 249 20.9
2008-06-09 10:32:37 51°9.894 2°29.598 276.5 2.4 247 21.1
2008-06-09 10:33:37 51°9.878 2°29.544 278.7 2.2 243 21.1
2008-06-09 10:34:37 51°9.861 2°29.496 281.4 2 243 21.1
2008-06-09 10:35:37 51°9.844 2°29.453 285.1 1.9 239 21
2008-06-09 10:36:37 51°9.827 2°29.412 288.9 1.9 235 20.9
2008-06-09 10:37:37 51°9.809 2°29.373 290.2 1.8 232 20.7
2008-06-09 10:38:37 51°9.789 2°29.334 290.2 1.8 231 20.5
2008-06-09 10:39:37 51°9.769 2°29.297 288.5 1.8 226 20.9
2008-06-09 10:40:37 51°9.749 2°29.262 284.8 1.8 229 21
2008-06-09 10:41:37 51°9.731 2°29.214 300.5 2.2 255 20.9
2008-06-09 10:42:37 51°9.755 2°29.165 9.7 2.5 356 20.8
2008-06-09 10:43:37 51°9.784 2°29.222 56.3 3.2 62 20.8
2008-06-09 10:44:37 51°9.809 2°29.295 56.9 3.1 63 21
2008-06-09 10:45:37 51°9.832 2°29.363 54.1 2.8 59 20.8
2008-06-09 10:46:38 51°9.859 2°29.423 48.5 2.6 50 21.3
2008-06-09 10:47:37 51°9.887 2°29.466 42 2.5 40 21.5
2008-06-09 10:48:37 51°9.917 2°29.51 44.9 2.5 45 21.5
2008-06-09 10:49:37 51°9.947 2°29.559 45.9 2.7 45 21.7
2008-06-09 10:50:37 51°9.976 2°29.609 46.4 2.6 46 21.6
2008-06-09 10:51:37 51°10.007 2°29.659 46.3 2.6 46 21.8
2008-06-09 10:52:37 51°10.037 2°29.711 46.2 2.7 47 21.7
2008-06-09 10:53:37 51°10.067 2°29.761 46.4 2.6 48 21.6
2008-06-09 10:54:37 51°10.097 2°29.812 46.3 2.7 47 21.7
2008-06-09 10:55:37 51°10.127 2°29.863 46.5 2.6 46 21.6
2008-06-09 10:56:37 51°10.158 2°29.914 46.8 2.7 48 21.7
2008-06-09 10:57:37 51°10.189 2°29.964 46.9 2.7 46 21.7
2008-06-09 10:58:37 51°10.219 2°30.014 47.6 2.6 48 21.7
2008-06-09 10:59:37 51°10.248 2°30.066 47.8 2.6 47 21.6
2008-06-09 11:00:37 51°10.278 2°30.116 47.4 2.5 46 21.8
2008-06-09 11:01:37 51°10.308 2°30.166 47.2 2.6 45 21.6
2008-06-09 11:02:38 51°10.341 2°30.211 40.8 2.6 36 21.5
2008-06-09 11:03:37 51°10.378 2°30.244 34.1 2.6 27 21.5
2008-06-09 11:04:37 51°10.416 2°30.279 39.8 2.5 35 21.4
2008-06-09 11:05:37 51°10.448 2°30.325 46.5 2.6 45 21.2
2008-06-09 11:06:37 51°10.477 2°30.376 49.5 2.6 48 21.3
2008-06-09 11:07:37 51°10.506 2°30.427 48.9 2.6 48 20.8
2008-06-09 11:08:37 51°10.534 2°30.479 48.9 2.6 49 21
2008-06-09 11:09:37 51°10.563 2°30.529 48.7 2.6 49 20.9
2008-06-09 11:10:37 51°10.592 2°30.579 47.6 2.6 47 21
2008-06-09 11:11:37 51°10.617 2°30.634 57 2.6 63 20.7
2008-06-09 11:12:37 51°10.627 2°30.704 72.7 2.8 86 20.4
2008-06-09 11:13:37 51°10.63 2°30.778 74.7 2.8 87 20
2008-06-09 11:14:37 51°10.632 2°30.853 75.4 2.8 89 19.3
2008-06-09 11:15:37 51°10.631 2°30.926 76.8 2.7 91 18.9
2008-06-09 11:16:38 51°10.63 2°30.999 77.9 2.8 92 18.2
2008-06-09 11:17:37 51°10.615 2°31.069 100.2 2.7 125 17.7
2008-06-09 11:18:37 51°10.586 2°31.109 114.8 2.1 149 17.6
2008-06-09 11:19:37 51°10.558 2°31.13 113.2 1.7 158 17.8
2008-06-09 11:20:37 51°10.534 2°31.142 105.4 1.3 165 17.8
2008-06-09 11:21:37 51°10.515 2°31.146 96 1 179 17.9
2008-06-09 11:22:38 51°10.486 2°31.173 127.4 3.8 153 17.7
2008-06-09 11:23:37 51°10.408 2°31.114 232.9 6.4 242 17
2008-06-09 11:24:37 51°10.44 2°30.987 343.2 5.3 340 18.4
2008-06-09 11:25:38 51°10.516 2°31.067 45.7 8 45 18
2008-06-09 11:26:37 51°10.626 2°31.238 46 9.8 46 17.4
2008-06-09 11:27:37 51°10.744 2°31.437 47.8 11.1 47 16.6
2008-06-09 11:28:37 51°10.875 2°31.646 46.5 11.4 45 16.1
2008-06-09 11:29:37 51°11.007 2°31.858 47 11.3 46 15.7
2008-06-09 11:30:37 51°11.139 2°32.074 47.7 11.4 46 15.1
2008-06-09 11:31:37 51°11.267 2°32.294 50.8 11.3 50 14.2
2008-06-09 11:32:37 51°11.394 2°32.51 47.1 11.2 45 14.8
2008-06-09 11:33:37 51°11.526 2°32.72 47.7 11.2 46 17.1
2008-06-09 11:34:38 51°11.659 2°32.934 48 11.2 45 17.3
2008-06-09 11:35:37 51°11.788 2°33.14 47.9 11.2 45 17.5
2008-06-09 11:36:37 51°11.92 2°33.351 47.8 11.2 45 18.1
2008-06-09 11:37:37 51°12.051 2°33.562 49.5 11.3 48 17.8
2008-06-09 11:38:38 51°12.178 2°33.787 50.8 11.2 48 17.2
2008-06-09 11:39:37 51°12.306 2°33.993 47.1 11.1 43 15.9
2008-06-09 11:40:37 51°12.44 2°34.194 46.9 11.1 43 14.7
2008-06-09 11:41:38 51°12.576 2°34.4 47.4 11.1 44 13.3
2008-06-09 11:42:37 51°12.707 2°34.6 47.2 11.1 44 12
2008-06-09 11:43:37 51°12.838 2°34.807 50 11.1 47 11.7
2008-06-09 11:44:37 51°12.95 2°35.037 57.6 11 54 13.5
2008-06-09 11:45:38 51°13.059 2°35.278 58.3 11 54 14.8
2008-06-09 11:46:37 51°13.162 2°35.513 57.6 11.1 54 15.3
2008-06-09 11:47:37 51°13.261 2°35.76 63.1 11.1 59 15.6
2008-06-09 11:48:37 51°13.357 2°36.006 63.1 11 60 15.7
2008-06-09 11:49:37 51°13.442 2°36.259 64.5 10.9 60 15.9
2008-06-09 11:50:38 51°13.503 2°36.531 82.2 10.8 85 14.9
2008-06-09 11:51:37 51°13.497 2°36.818 92.6 11.1 93 14.8
2008-06-09 11:52:37 51°13.441 2°37.093 120.6 11.1 129 7.5
2008-06-09 11:53:37 51°13.272 2°37.239 160 12.3 167 7.8
2008-06-09 11:54:37 51°13.063 2°37.273 171.9 12.9 179 8.4
2008-06-09 11:55:37 51°12.845 2°37.255 182.1 13.3 188 9.2
2008-06-09 11:56:37 51°12.624 2°37.197 183.6 13.4 189 9.9
2008-06-09 11:57:37 51°12.403 2°37.148 182.4 13.4 189 9.5
2008-06-09 11:58:37 51°12.185 2°37.073 186.9 13.4 190 9.7
2008-06-09 11:59:38 51°11.961 2°37.023 180.5 13.4 187 9.9
2008-06-09 12:00:37 51°11.743 2°36.971 185.8 13.5 191 10.6
2008-06-09 12:01:37 51°11.521 2°36.903 184.3 13.5 188 11.5
2008-06-09 12:02:37 51°11.298 2°36.853 182.7 13.6 187 11.9
2008-06-09 12:03:38 51°11.071 2°36.799 183.3 13.5 189 11.5
2008-06-09 12:04:37 51°10.853 2°36.75 182.6 13.4 187 10.5
2008-06-09 12:05:37 51°10.636 2°36.7 183.5 13 187 8.7
2008-06-09 12:06:38 51°10.418 2°36.675 174 12.9 177 8.9
2008-06-09 12:07:37 51°10.207 2°36.719 160.9 12.8 166 16.5
2008-06-09 12:08:38 51°10.035 2°36.885 125.3 11.5 131 16.7
2008-06-09 12:09:37 51°9.983 2°37.15 88.2 10.7 91 16.7
2008-06-09 12:10:38 51°10.017 2°37.433 73 10.8 75 16.6
2008-06-09 12:11:37 51°10.056 2°37.708 76.8 10.9 80 16.3
2008-06-09 12:12:38 51°10.082 2°37.999 78.3 11 80 16
2008-06-09 12:13:38 51°10.11 2°38.285 79.2 11 84 15.4
2008-06-09 12:14:37 51°10.133 2°38.569 77.8 11 81 15
2008-06-09 12:15:38 51°10.172 2°38.857 69.4 11 70 14.3
2008-06-09 12:16:37 51°10.233 2°39.12 67.6 9.1 69 14
2008-06-09 12:17:38 51°10.266 2°39.256 60 3.4 63 14.3
2008-06-09 12:18:37 51°10.284 2°39.315 64.1 2.4 74 14
2008-06-09 12:19:38 51°10.289 2°39.385 73 2.7 85 14
2008-06-09 12:20:38 51°10.296 2°39.456 69.1 2.7 78 13.9
2008-06-09 12:21:37 51°10.308 2°39.524 64.8 2.6 72 13.7
2008-06-09 12:22:38 51°10.323 2°39.589 60.9 2.6 66 13.5
2008-06-09 12:23:37 51°10.342 2°39.649 57.4 2.6 59 13.4
2008-06-09 12:24:38 51°10.361 2°39.713 64.9 2.7 71 13.3
2008-06-09 12:25:37 51°10.372 2°39.78 65.5 2.6 71 13.2
2008-06-09 12:26:38 51°10.389 2°39.844 59 2.6 63 13.2
2008-06-09 12:27:37 51°10.409 2°39.905 58.6 2.6 62 13.1
2008-06-09 12:28:38 51°10.429 2°39.969 59.7 2.6 65 13.1
2008-06-09 12:29:37 51°10.447 2°40.032 61.7 2.7 67 13.1
2008-06-09 12:30:37 51°10.464 2°40.098 63.4 2.7 70 13
2008-06-09 12:31:38 51°10.481 2°40.166 61.6 2.7 64 13
2008-06-09 12:32:38 51°10.503 2°40.226 55 2.6 56 12.9
2008-06-09 12:33:38 51°10.528 2°40.285 56.6 2.7 59 12.9
2008-06-09 12:34:37 51°10.546 2°40.35 64.8 2.8 71 12.9
2008-06-09 12:35:38 51°10.561 2°40.421 64.1 2.8 69 12.7
2008-06-09 12:36:38 51°10.58 2°40.486 59.3 2.7 63 12.7
2008-06-09 12:37:37 51°10.601 2°40.549 58.8 2.8 63 12.6
2008-06-09 12:38:38 51°10.622 2°40.618 61.7 2.9 66 12.5
2008-06-09 12:39:38 51°10.643 2°40.685 58.7 2.8 62 12.3
2008-06-09 12:40:38 51°10.668 2°40.746 53.9 2.8 53 12.3
2008-06-09 12:41:37 51°10.697 2°40.801 49.2 2.8 46 12.3
2008-06-09 12:42:38 51°10.73 2°40.851 44.2 2.8 40 12.3
2008-06-09 12:43:37 51°10.766 2°40.898 45.6 2.8 42 12.3
2008-06-09 12:44:38 51°10.797 2°40.952 51.4 2.7 51 12.3
2008-06-09 12:45:37 51°10.827 2°41.007 50.9 2.7 48 12.1
2008-06-09 12:46:38 51°10.858 2°41.059 48.6 2.7 45 12.1
2008-06-09 12:47:38 51°10.887 2°41.108 47.8 2.6 45 12.2
2008-06-09 12:48:38 51°10.918 2°41.157 46.5 2.6 44 12.1
2008-06-09 12:49:38 51°10.95 2°41.207 46.3 2.7 45 12.1
2008-06-09 12:50:37 51°10.981 2°41.256 45.6 2.7 45 12.1
2008-06-09 12:51:38 51°11.012 2°41.308 46.6 2.7 47 12.1
2008-06-09 12:52:37 51°11.041 2°41.358 45.8 2.6 47 11.9
2008-06-09 12:53:38 51°11.069 2°41.414 54.3 2.7 60 11.9
2008-06-09 12:54:38 51°11.086 2°41.479 63.7 2.8 72 11.8
2008-06-09 12:55:38 51°11.095 2°41.534 63.7 1.5 78 11.9
2008-06-09 12:56:38 51°11.097 2°41.561 59 0.7 87 11.8
2008-06-09 12:57:37 51°11.094 2°41.573 56.9 0.4 128 11.8
2008-06-09 12:58:38 51°11.089 2°41.578 56.6 0.5 114 11.8
2008-06-09 12:59:37 51°11.109 2°41.627 47.4 4.8 46 11.8
2008-06-09 13:00:38 51°11.206 2°41.757 40.5 9 38 11.7
2008-06-09 13:01:37 51°11.33 2°41.931 48.2 11 48 11.4
2008-06-09 13:02:38 51°11.451 2°42.166 52.7 11.3 52 10.8
2008-06-09 13:03:38 51°11.571 2°42.399 52.2 11.3 50 10.1
2008-06-09 13:04:38 51°11.695 2°42.624 49.9 11.3 48 9.3
2008-06-09 13:05:38 51°11.821 2°42.847 49.4 11.3 47 9
2008-06-09 13:06:37 51°11.943 2°43.066 51.4 11.2 54 9.6
2008-06-09 13:07:38 51°12.039 2°43.325 61.4 11.2 61 9.1
2008-06-09 13:08:38 51°12.131 2°43.585 61.5 11.2 61 9.7
2008-06-09 13:09:38 51°12.213 2°43.851 67.6 11.3 67 9.3
2008-06-09 13:10:37 51°12.279 2°44.124 70.6 11.3 70 9.4
2008-06-09 13:11:38 51°12.333 2°44.415 75.5 11.2 76 7.9
2008-06-09 13:12:38 51°12.389 2°44.701 72.2 11.3 72 8.3
2008-06-09 13:13:37 51°12.448 2°44.979 72.5 11.2 72 8
2008-06-09 13:14:38 51°12.515 2°45.26 68.4 11.2 66 7.9
2008-06-09 13:15:38 51°12.597 2°45.524 62.5 11.2 60 8.4
2008-06-09 13:16:38 51°12.701 2°45.772 58.8 11.2 57 9.1
2008-06-09 13:17:38 51°12.813 2°46.009 52.9 11.2 50 10
2008-06-09 13:18:38 51°12.932 2°46.237 51.6 11.2 49 10
2008-06-09 13:19:38 51°13.051 2°46.464 52 11.2 49 10.5
2008-06-09 13:20:38 51°13.173 2°46.687 51.6 11.1 48 10.6
2008-06-09 13:21:38 51°13.294 2°46.911 51.4 11.2 50 10.7
2008-06-09 13:22:37 51°13.414 2°47.133 51.7 11.2 50 10.9
2008-06-09 13:23:38 51°13.538 2°47.36 51.3 11.2 49 11.1
2008-06-09 13:24:38 51°13.625 2°47.531 56.8 4.7 60 11.3
2008-06-09 13:25:38 51°13.647 2°47.617 64 2.8 70 11.3
2008-06-09 13:26:38 51°13.664 2°47.673 54.3 2.4 58 11.2
2008-06-09 13:27:38 51°13.694 2°47.721 41.4 2.7 39 11.5
2008-06-09 13:28:38 51°13.728 2°47.77 44.3 3 45 11.5
2008-06-09 13:29:37 51°13.761 2°47.838 54.4 3.3 57 11.5
2008-06-09 13:30:38 51°13.793 2°47.912 52.2 3.4 54 11.5
2008-06-09 13:31:38 51°13.828 2°47.981 49.7 3.4 52 11.7
2008-06-09 13:32:38 51°13.86 2°48.056 54.1 3.4 58 11.5
2008-06-09 13:33:38 51°13.89 2°48.137 58.2 3.6 63 11.5
2008-06-09 13:34:38 51°13.914 2°48.218 58.6 3 63 11.6
2008-06-09 13:35:38 51°13.936 2°48.281 54.5 2.6 61 11.5
2008-06-09 13:36:38 51°13.957 2°48.34 53.5 2.5 60 11.6
2008-06-09 13:37:38 51°13.977 2°48.397 54.8 2.4 61 11.6
2008-06-09 13:38:38 51°13.997 2°48.453 54.1 2.3 63 11.7
2008-06-09 13:39:38 51°14.016 2°48.507 53 2.3 62 11.6
2008-06-09 13:40:38 51°14.034 2°48.56 51.9 2.3 58 11.5
2008-06-09 13:41:38 51°14.054 2°48.61 50.1 2.4 57 11.7
2008-06-09 13:42:37 51°14.079 2°48.669 50 3 56 11.6
2008-06-09 13:43:38 51°14.109 2°48.738 49.8 3.2 55 11.9
2008-06-09 13:44:38 51°14.14 2°48.808 49 3.3 55 11.8
2008-06-09 13:45:38 51°14.174 2°48.876 46.7 3.3 51 11.8
2008-06-09 13:46:38 51°14.208 2°48.94 46.3 3.1 50 11.9
2008-06-09 13:47:38 51°14.242 2°49.003 45.2 3.1 49 11.9
2008-06-09 13:48:38 51°14.272 2°49.071 51.7 3.2 58 11.9
2008-06-09 13:49:37 51°14.301 2°49.142 50 3.2 55 11.9
2008-06-09 13:50:38 51°14.334 2°49.21 46.4 3.1 51 11.9
2008-06-09 13:51:38 51°14.368 2°49.274 44.9 3.2 50 12
2008-06-09 13:52:38 51°14.4 2°49.342 48.1 3.2 54 12.1
2008-06-09 13:53:38 51°14.431 2°49.413 50.6 3.3 58 12.1
2008-06-09 13:54:38 51°14.459 2°49.49 53.9 3.3 61 12.2
2008-06-09 13:55:38 51°14.484 2°49.568 56 3.3 65 12.2
2008-06-09 13:56:38 51°14.507 2°49.649 58.5 3.3 67 12.2
2008-06-09 13:57:38 51°14.526 2°49.732 61.7 3.4 71 12.2
2008-06-09 13:58:38 51°14.535 2°49.818 72.8 2.9 89 12.3
2008-06-09 13:59:38 51°14.525 2°49.886 92.1 2.5 115 12.3
2008-06-09 14:00:38 51°14.498 2°49.937 114.6 2.6 140 12.1
2008-06-09 14:01:38 51°14.462 2°49.971 129 2.2 156 11.9
2008-06-09 14:02:38 51°14.421 2°49.994 148.7 3.8 170 11.6
2008-06-09 14:03:38 51°14.361 2°49.962 208.2 5.1 220 11.4
2008-06-09 14:04:38 51°14.314 2°49.853 242.3 4.2 239 11.4
2008-06-09 14:05:38 51°14.286 2°49.771 251.1 3.1 243 11.5
2008-06-09 14:06:38 51°14.265 2°49.708 257.1 2.4 243 11.5
2008-06-09 14:07:38 51°14.249 2°49.657 264.1 2 244 11.5
2008-06-09 14:08:38 51°14.235 2°49.614 270.9 1.7 242 11.5
2008-06-09 14:09:38 51°14.223 2°49.578 277 1.4 240 11.5
2008-06-09 14:10:38 51°14.21 2°49.548 280.1 1.3 236 11.5
2008-06-09 14:11:38 51°14.198 2°49.521 283.9 1.2 233 11.6
2008-06-09 14:12:38 51°14.187 2°49.497 289 1.1 232 11.5
2008-06-09 14:13:38 51°14.179 2°49.468 298.9 2 276 11.5
2008-06-09 14:14:38 51°14.225 2°49.452 25.5 4 36 11.8
2008-06-09 14:15:38 51°14.275 2°49.616 63.6 9.7 65 11.7
2008-06-09 14:16:38 51°14.339 2°49.892 71.6 11.4 73 11.5
2008-06-09 14:17:37 51°14.387 2°50.177 74.5 11.3 76 11.1
2008-06-09 14:18:38 51°14.433 2°50.473 75.1 11.4 76 10.9
2008-06-09 14:19:37 51°14.477 2°50.76 75.3 11.3 77 10.8
2008-06-09 14:20:38 51°14.517 2°51.06 78.9 11.4 81 10.7
2008-06-09 14:21:37 51°14.534 2°51.358 87 11.4 88 10.5
2008-06-09 14:22:37 51°14.544 2°51.665 86.5 11.4 86 10.3
2008-06-09 14:23:38 51°14.559 2°51.973 85.6 11.5 85 10.2
2008-06-09 14:24:37 51°14.576 2°52.27 85 11.5 85 10.1
2008-06-09 14:25:38 51°14.595 2°52.58 85.3 11.6 83 10.1
2008-06-09 14:26:37 51°14.617 2°52.88 85.6 11.7 84 9.8
2008-06-09 14:27:38 51°14.637 2°53.193 86.3 11.7 83 9.5
2008-06-09 14:28:37 51°14.659 2°53.497 88.5 11.7 85 9.5
2008-06-09 14:29:38 51°14.673 2°53.814 89.5 11.8 92 11.3
2008-06-09 14:30:37 51°14.626 2°54.112 111.7 11.9 108 11.7
2008-06-09 14:31:38 51°14.564 2°54.416 114.4 11.9 111 11.9
2008-06-09 14:32:38 51°14.478 2°54.701 120 11.8 115 11.5
2008-06-09 14:33:38 51°14.386 2°54.981 127 12.1 121 10.9
2008-06-09 14:34:38 51°14.265 2°55.233 137.1 11.6 131 -999
2008-06-09 14:35:38 51°14.145 2°55.392 160.6 7.3 149 -999
2008-06-09 14:36:38 51°14.054 2°55.459 162.6 5.5 157 -999
2008-06-09 14:37:38 51°13.962 2°55.526 161.7 6.6 155 -999
2008-06-09 14:38:38 51°13.875 2°55.59 161 5 155 -999
2008-06-09 14:39:38 51°13.805 2°55.645 155.2 4.4 151 -999
2008-06-09 14:40:38 51°13.75 2°55.718 139.4 4.7 135 -999
2008-06-09 14:41:38 51°13.694 2°55.822 132.4 5.2 127 -999
2008-06-09 14:42:38 51°13.651 2°55.929 123.5 4.4 119 -999
2008-06-09 14:43:38 51°13.629 2°56.017 109.8 2.7 105 -999
2008-06-09 14:44:38 51°13.624 2°56.043 123.9 0.3 154 -999